sensor_id;sensor_type;location;lat;lon;timestamp;pressure;altitude;pressure_sealevel;temperature;humidity
41040;BME280;48586;50.122;18.972;2022-07-15T00:02:17;98336.75;;;18.55;78.27
41040;BME280;48586;50.122;18.972;2022-07-15T00:05:19;98336.19;;;18.53;78.04
41040;BME280;48586;50.122;18.972;2022-07-15T00:08:21;98345.59;;;18.51;78.26
41040;BME280;48586;50.122;18.972;2022-07-15T00:11:25;98341.84;;;18.47;79.13
41040;BME280;48586;50.122;18.972;2022-07-15T00:14:27;98346.13;;;18.42;79.20
41040;BME280;48586;50.122;18.972;2022-07-15T00:17:29;98354.44;;;18.46;78.66
41040;BME280;48586;50.122;18.972;2022-07-15T00:20:32;98354.69;;;18.44;78.98
41040;BME280;48586;50.122;18.972;2022-07-15T00:23:37;98349.31;;;18.44;79.76
41040;BME280;48586;50.122;18.972;2022-07-15T00:26:40;98345.31;;;18.47;79.49
41040;BME280;48586;50.122;18.972;2022-07-15T00:29:43;98349.59;;;18.48;79.84
41040;BME280;48586;50.122;18.972;2022-07-15T00:32:45;98343.19;;;18.49;79.51
41040;BME280;48586;50.122;18.972;2022-07-15T00:35:48;98335.94;;;18.50;79.33
41040;BME280;48586;50.122;18.972;2022-07-15T00:38:50;98326.53;;;18.47;79.57
41040;BME280;48586;50.122;18.972;2022-07-15T00:41:54;98332.72;;;18.48;80.42
41040;BME280;48586;50.122;18.972;2022-07-15T00:44:56;98323.31;;;18.45;80.21
41040;BME280;48586;50.122;18.972;2022-07-15T00:47:59;98332.19;;;18.45;79.54
41040;BME280;48586;50.122;18.972;2022-07-15T00:51:01;98327.88;;;18.44;79.19
41040;BME280;48586;50.122;18.972;2022-07-15T00:54:04;98323.06;;;18.41;81.80
41040;BME280;48586;50.122;18.972;2022-07-15T00:57:09;98330.31;;;18.41;80.13
41040;BME280;48586;50.122;18.972;2022-07-15T01:00:12;98331.09;;;18.36;80.50
41040;BME280;48586;50.122;18.972;2022-07-15T01:03:17;98331.63;;;18.33;79.95
41040;BME280;48586;50.122;18.972;2022-07-15T01:06:22;98330.25;;;18.31;80.58
41040;BME280;48586;50.122;18.972;2022-07-15T01:09:24;98334.31;;;18.28;80.10
41040;BME280;48586;50.122;18.972;2022-07-15T01:12:28;98332.13;;;18.25;80.27
41040;BME280;48586;50.122;18.972;2022-07-15T01:15:31;98328.91;;;18.23;79.94
41040;BME280;48586;50.122;18.972;2022-07-15T01:18:34;98322.22;;;18.20;79.90
41040;BME280;48586;50.122;18.972;2022-07-15T01:21:38;98325.41;;;18.17;80.56
41040;BME280;48586;50.122;18.972;2022-07-15T01:24:40;98324.84;;;18.10;80.76
41040;BME280;48586;50.122;18.972;2022-07-15T01:27:49;98323.50;;;18.08;80.49
41040;BME280;48586;50.122;18.972;2022-07-15T01:30:57;98330.97;;;18.06;80.37
41040;BME280;48586;50.122;18.972;2022-07-15T01:34:03;98328.84;;;18.03;80.46
41040;BME280;48586;50.122;18.972;2022-07-15T01:37:08;98329.09;;;18.01;80.42
41040;BME280;48586;50.122;18.972;2022-07-15T01:40:15;98328.84;;;17.98;80.50
41040;BME280;48586;50.122;18.972;2022-07-15T01:43:17;98334.97;;;17.93;80.97
41040;BME280;48586;50.122;18.972;2022-07-15T01:46:20;98340.56;;;17.86;81.69
41040;BME280;48586;50.122;18.972;2022-07-15T01:49:23;98333.59;;;17.80;82.09
41040;BME280;48586;50.122;18.972;2022-07-15T01:52:47;98333.31;;;17.82;81.36
41040;BME280;48586;50.122;18.972;2022-07-15T01:55:49;98337.09;;;17.81;81.58
41040;BME280;48586;50.122;18.972;2022-07-15T01:58:52;98335.72;;;17.83;80.81
41040;BME280;48586;50.122;18.972;2022-07-15T02:01:56;98338.97;;;17.85;80.31
41040;BME280;48586;50.122;18.972;2022-07-15T02:04:59;98341.09;;;17.88;79.58
41040;BME280;48586;50.122;18.972;2022-07-15T02:08:03;98345.41;;;17.89;79.53
41040;BME280;48586;50.122;18.972;2022-07-15T02:11:07;98350.22;;;17.87;79.79
41040;BME280;48586;50.122;18.972;2022-07-15T02:14:09;98348.59;;;17.81;79.16
41040;BME280;48586;50.122;18.972;2022-07-15T02:17:13;98357.97;;;17.79;78.89
41040;BME280;48586;50.122;18.972;2022-07-15T02:20:16;98363.84;;;17.76;78.98
41040;BME280;48586;50.122;18.972;2022-07-15T02:23:22;98370.53;;;17.73;78.52
41040;BME280;48586;50.122;18.972;2022-07-15T02:26:24;98374.81;;;17.69;78.27
41040;BME280;48586;50.122;18.972;2022-07-15T02:29:29;98378.53;;;17.63;78.55
41040;BME280;48586;50.122;18.972;2022-07-15T02:32:31;98380.94;;;17.59;78.27
41040;BME280;48586;50.122;18.972;2022-07-15T02:35:34;98389.75;;;17.55;78.14
41040;BME280;48586;50.122;18.972;2022-07-15T02:38:38;98387.28;;;17.48;78.89
41040;BME280;48586;50.122;18.972;2022-07-15T02:41:41;98388.88;;;17.44;78.70
41040;BME280;48586;50.122;18.972;2022-07-15T02:44:46;98395.00;;;17.39;78.36
41040;BME280;48586;50.122;18.972;2022-07-15T02:47:49;98397.66;;;17.34;78.34
41040;BME280;48586;50.122;18.972;2022-07-15T02:50:57;98391.16;;;17.25;78.23
41040;BME280;48586;50.122;18.972;2022-07-15T02:54:02;98395.16;;;17.23;78.70
41040;BME280;48586;50.122;18.972;2022-07-15T02:57:06;98400.75;;;17.16;78.46
41040;BME280;48586;50.122;18.972;2022-07-15T03:00:13;98410.31;;;17.12;78.79
41040;BME280;48586;50.122;18.972;2022-07-15T03:03:16;98411.91;;;17.08;78.97
41040;BME280;48586;50.122;18.972;2022-07-15T03:06:18;98410.53;;;17.05;78.51
41040;BME280;48586;50.122;18.972;2022-07-15T03:09:22;98426.84;;;17.04;78.88
41040;BME280;48586;50.122;18.972;2022-07-15T03:12:24;98425.19;;;16.98;79.54
41040;BME280;48586;50.122;18.972;2022-07-15T03:15:29;98424.91;;;16.94;78.91
41040;BME280;48586;50.122;18.972;2022-07-15T03:18:31;98444.16;;;16.91;79.46
41040;BME280;48586;50.122;18.972;2022-07-15T03:21:33;98441.72;;;16.89;79.58
41040;BME280;48586;50.122;18.972;2022-07-15T03:24:37;98436.59;;;16.88;79.93
41040;BME280;48586;50.122;18.972;2022-07-15T03:27:40;98437.41;;;16.88;79.48
41040;BME280;48586;50.122;18.972;2022-07-15T03:30:44;98451.88;;;16.87;79.48
41040;BME280;48586;50.122;18.972;2022-07-15T03:33:48;98457.72;;;16.84;79.72
41040;BME280;48586;50.122;18.972;2022-07-15T03:36:52;98473.50;;;16.81;80.07
41040;BME280;48586;50.122;18.972;2022-07-15T03:39:56;98474.84;;;16.83;79.21
41040;BME280;48586;50.122;18.972;2022-07-15T03:42:58;98480.19;;;16.83;79.55
41040;BME280;48586;50.122;18.972;2022-07-15T03:46:01;98496.25;;;16.83;79.39
41040;BME280;48586;50.122;18.972;2022-07-15T03:49:06;98504.78;;;16.80;79.81
41040;BME280;48586;50.122;18.972;2022-07-15T03:52:08;98495.09;;;16.74;79.81
41040;BME280;48586;50.122;18.972;2022-07-15T03:55:12;98504.69;;;16.70;79.42
41040;BME280;48586;50.122;18.972;2022-07-15T03:58:13;98513.19;;;16.67;79.25
41040;BME280;48586;50.122;18.972;2022-07-15T04:01:16;98528.13;;;16.63;79.31
41040;BME280;48586;50.122;18.972;2022-07-15T04:04:18;98527.59;;;16.61;79.24
41040;BME280;48586;50.122;18.972;2022-07-15T04:07:20;98532.16;;;16.60;79.03
41040;BME280;48586;50.122;18.972;2022-07-15T04:10:24;98530.28;;;16.61;78.49
41040;BME280;48586;50.122;18.972;2022-07-15T04:13:27;98534.56;;;16.62;78.21
41040;BME280;48586;50.122;18.972;2022-07-15T04:16:29;98541.53;;;16.63;78.10
41040;BME280;48586;50.122;18.972;2022-07-15T04:19:41;98540.16;;;16.60;77.70
41040;BME280;48586;50.122;18.972;2022-07-15T04:22:44;98542.84;;;16.60;77.58
41040;BME280;48586;50.122;18.972;2022-07-15T04:25:49;98542.59;;;16.62;77.28
41040;BME280;48586;50.122;18.972;2022-07-15T04:28:53;98549.63;;;16.68;76.84
41040;BME280;48586;50.122;18.972;2022-07-15T04:31:57;98553.97;;;16.74;76.28
41040;BME280;48586;50.122;18.972;2022-07-15T04:35:05;98562.00;;;16.74;75.95
41040;BME280;48586;50.122;18.972;2022-07-15T04:38:08;98561.69;;;16.70;75.55
41040;BME280;48586;50.122;18.972;2022-07-15T04:41:12;98567.63;;;16.73;75.36
41040;BME280;48586;50.122;18.972;2022-07-15T04:44:14;98575.94;;;16.76;75.58
41040;BME280;48586;50.122;18.972;2022-07-15T04:47:17;98567.97;;;16.81;75.33
41040;BME280;48586;50.122;18.972;2022-07-15T04:50:26;98572.31;;;16.87;75.03
41040;BME280;48586;50.122;18.972;2022-07-15T04:53:45;98572.63;;;16.91;74.74
41040;BME280;48586;50.122;18.972;2022-07-15T04:56:49;98576.47;;;17.00;74.73
41040;BME280;48586;50.122;18.972;2022-07-15T04:59:52;98577.03;;;17.02;74.24
41040;BME280;48586;50.122;18.972;2022-07-15T05:02:55;98587.50;;;17.04;73.95
41040;BME280;48586;50.122;18.972;2022-07-15T05:05:57;98587.75;;;17.02;73.57
41040;BME280;48586;50.122;18.972;2022-07-15T05:09:07;98592.06;;;17.03;73.23
41040;BME280;48586;50.122;18.972;2022-07-15T05:12:11;98590.56;;;17.12;72.96
41040;BME280;48586;50.122;18.972;2022-07-15T05:15:20;98593.03;;;17.19;72.25
41040;BME280;48586;50.122;18.972;2022-07-15T05:18:22;98609.69;;;17.21;72.56
41040;BME280;48586;50.122;18.972;2022-07-15T05:21:28;98613.91;;;17.17;72.45
41040;BME280;48586;50.122;18.972;2022-07-15T05:24:30;98623.03;;;17.16;72.53
41040;BME280;48586;50.122;18.972;2022-07-15T05:27:36;98623.03;;;17.16;71.32
41040;BME280;48586;50.122;18.972;2022-07-15T05:30:38;98630.94;;;17.11;70.93
41040;BME280;48586;50.122;18.972;2022-07-15T05:33:42;98640.03;;;17.10;70.92
41040;BME280;48586;50.122;18.972;2022-07-15T05:36:44;98644.84;;;17.08;71.14
41040;BME280;48586;50.122;18.972;2022-07-15T05:39:49;98649.56;;;17.01;70.77
41040;BME280;48586;50.122;18.972;2022-07-15T05:43:05;98651.13;;;16.96;70.56
41040;BME280;48586;50.122;18.972;2022-07-15T05:46:10;98660.72;;;16.92;69.78
41040;BME280;48586;50.122;18.972;2022-07-15T05:49:23;98659.44;;;16.95;70.06
41040;BME280;48586;50.122;18.972;2022-07-15T05:52:28;98656.31;;;17.03;69.93
41040;BME280;48586;50.122;18.972;2022-07-15T05:55:31;98660.25;;;17.17;70.06
41040;BME280;48586;50.122;18.972;2022-07-15T05:58:36;98662.50;;;17.26;69.12
41040;BME280;48586;50.122;18.972;2022-07-15T06:01:38;98667.41;;;17.34;68.49
41040;BME280;48586;50.122;18.972;2022-07-15T06:04:42;98668.38;;;17.50;68.30
41040;BME280;48586;50.122;18.972;2022-07-15T06:07:44;98673.59;;;17.61;67.61
41040;BME280;48586;50.122;18.972;2022-07-15T06:10:52;98676.63;;;17.70;67.61
41040;BME280;48586;50.122;18.972;2022-07-15T06:13:57;98679.66;;;17.79;67.04
41040;BME280;48586;50.122;18.972;2022-07-15T06:16:59;98670.63;;;17.85;66.48
41040;BME280;48586;50.122;18.972;2022-07-15T06:20:03;98679.00;;;17.93;66.53
41040;BME280;48586;50.122;18.972;2022-07-15T06:23:05;98687.31;;;17.97;66.36
41040;BME280;48586;50.122;18.972;2022-07-15T06:26:11;98686.25;;;17.93;65.30
41040;BME280;48586;50.122;18.972;2022-07-15T06:29:14;98691.28;;;17.89;65.38
41040;BME280;48586;50.122;18.972;2022-07-15T06:32:16;98693.41;;;17.87;64.40
41040;BME280;48586;50.122;18.972;2022-07-15T06:35:18;98705.50;;;17.90;64.33
41040;BME280;48586;50.122;18.972;2022-07-15T06:38:22;98705.00;;;17.93;63.13
41040;BME280;48586;50.122;18.972;2022-07-15T06:41:25;98703.13;;;17.93;63.54
41040;BME280;48586;50.122;18.972;2022-07-15T06:44:30;98708.53;;;17.99;63.67
41040;BME280;48586;50.122;18.972;2022-07-15T06:47:40;98715.47;;;17.94;63.49
41040;BME280;48586;50.122;18.972;2022-07-15T06:50:43;98720.13;;;18.04;63.90
41040;BME280;48586;50.122;18.972;2022-07-15T06:53:49;98723.09;;;18.08;63.93
41040;BME280;48586;50.122;18.972;2022-07-15T06:56:52;98735.31;;;17.93;63.53
41040;BME280;48586;50.122;18.972;2022-07-15T07:00:00;98730.22;;;17.97;64.71
41040;BME280;48586;50.122;18.972;2022-07-15T07:03:03;98740.25;;;18.07;64.53
41040;BME280;48586;50.122;18.972;2022-07-15T07:06:06;98740.31;;;18.12;64.17
41040;BME280;48586;50.122;18.972;2022-07-15T07:09:10;98752.75;;;18.23;63.66
41040;BME280;48586;50.122;18.972;2022-07-15T07:12:13;98756.56;;;18.27;62.83
41040;BME280;48586;50.122;18.972;2022-07-15T07:15:17;98754.22;;;18.36;62.42
41040;BME280;48586;50.122;18.972;2022-07-15T07:18:22;98761.41;;;18.30;62.25
41040;BME280;48586;50.122;18.972;2022-07-15T07:21:25;98757.94;;;18.30;61.78
41040;BME280;48586;50.122;18.972;2022-07-15T07:24:27;98755.66;;;18.49;61.06
41040;BME280;48586;50.122;18.972;2022-07-15T07:27:30;98753.94;;;18.69;60.27
41040;BME280;48586;50.122;18.972;2022-07-15T07:30:35;98761.81;;;18.81;59.63
41040;BME280;48586;50.122;18.972;2022-07-15T07:33:37;98767.53;;;18.95;59.61
41040;BME280;48586;50.122;18.972;2022-07-15T07:36:39;98772.38;;;18.93;57.20
41040;BME280;48586;50.122;18.972;2022-07-15T07:39:41;98775.78;;;18.83;57.48
41040;BME280;48586;50.122;18.972;2022-07-15T07:42:44;98776.88;;;18.87;57.23
41040;BME280;48586;50.122;18.972;2022-07-15T07:45:49;98782.34;;;18.98;56.84
41040;BME280;48586;50.122;18.972;2022-07-15T07:48:51;98781.94;;;19.16;56.91
41040;BME280;48586;50.122;18.972;2022-07-15T07:51:54;98783.69;;;19.48;56.86
41040;BME280;48586;50.122;18.972;2022-07-15T07:54:57;98783.19;;;19.61;53.01
41040;BME280;48586;50.122;18.972;2022-07-15T07:58:00;98787.25;;;19.58;54.46
41040;BME280;48586;50.122;18.972;2022-07-15T08:01:05;98796.16;;;19.74;53.98
41040;BME280;48586;50.122;18.972;2022-07-15T08:04:08;98799.69;;;19.85;53.84
41040;BME280;48586;50.122;18.972;2022-07-15T08:07:12;98799.78;;;20.15;54.58
41040;BME280;48586;50.122;18.972;2022-07-15T08:10:15;98792.81;;;20.19;52.14
41040;BME280;48586;50.122;18.972;2022-07-15T08:13:18;98799.13;;;19.83;50.82
41040;BME280;48586;50.122;18.972;2022-07-15T08:16:22;98801.06;;;19.98;52.56
41040;BME280;48586;50.122;18.972;2022-07-15T08:19:24;98791.97;;;20.09;52.61
41040;BME280;48586;50.122;18.972;2022-07-15T08:22:27;98807.06;;;20.05;52.20
41040;BME280;48586;50.122;18.972;2022-07-15T08:25:31;98800.59;;;20.11;51.89
41040;BME280;48586;50.122;18.972;2022-07-15T08:28:35;98797.34;;;20.04;51.70
41040;BME280;48586;50.122;18.972;2022-07-15T08:31:39;98794.69;;;20.34;51.16
41040;BME280;48586;50.122;18.972;2022-07-15T08:34:41;98784.22;;;20.43;51.55
41040;BME280;48586;50.122;18.972;2022-07-15T08:37:43;98790.69;;;20.32;51.98
41040;BME280;48586;50.122;18.972;2022-07-15T08:40:46;98794.44;;;20.31;50.95
41040;BME280;48586;50.122;18.972;2022-07-15T08:43:48;98794.16;;;20.32;50.29
41040;BME280;48586;50.122;18.972;2022-07-15T08:46:54;98803.84;;;20.38;49.77
41040;BME280;48586;50.122;18.972;2022-07-15T08:50:00;98806.84;;;20.52;50.21
41040;BME280;48586;50.122;18.972;2022-07-15T08:53:04;98800.09;;;20.55;47.37
41040;BME280;48586;50.122;18.972;2022-07-15T08:56:07;98799.03;;;20.56;49.60
41040;BME280;48586;50.122;18.972;2022-07-15T08:59:09;98801.72;;;20.56;50.69
41040;BME280;48586;50.122;18.972;2022-07-15T09:02:13;98814.63;;;20.28;48.68
41040;BME280;48586;50.122;18.972;2022-07-15T09:05:22;98817.84;;;20.20;47.92
41040;BME280;48586;50.122;18.972;2022-07-15T09:08:25;98807.63;;;20.32;49.03
41040;BME280;48586;50.122;18.972;2022-07-15T09:11:28;98809.81;;;20.66;50.26
41040;BME280;48586;50.122;18.972;2022-07-15T09:14:32;98814.13;;;20.82;50.19
41040;BME280;48586;50.122;18.972;2022-07-15T09:17:37;98806.00;;;21.08;47.12
41040;BME280;48586;50.122;18.972;2022-07-15T09:20:41;98807.91;;;21.17;48.81
41040;BME280;48586;50.122;18.972;2022-07-15T09:23:46;98807.63;;;21.14;47.30
41040;BME280;48586;50.122;18.972;2022-07-15T09:26:49;98806.53;;;21.20;46.77
41040;BME280;48586;50.122;18.972;2022-07-15T09:29:51;98812.69;;;21.36;45.49
41040;BME280;48586;50.122;18.972;2022-07-15T09:33:14;98801.41;;;21.24;43.38
41040;BME280;48586;50.122;18.972;2022-07-15T09:36:34;98801.34;;;21.34;44.94
41040;BME280;48586;50.122;18.972;2022-07-15T09:39:53;98805.69;;;21.40;43.03
41040;BME280;48586;50.122;18.972;2022-07-15T09:43:03;98801.41;;;21.24;43.66
41040;BME280;48586;50.122;18.972;2022-07-15T09:46:07;98788.22;;;21.12;46.05
41040;BME280;48586;50.122;18.972;2022-07-15T09:49:11;98793.66;;;20.97;44.05
41040;BME280;48586;50.122;18.972;2022-07-15T09:52:14;98791.47;;;21.09;45.15
41040;BME280;48586;50.122;18.972;2022-07-15T09:55:17;98792.06;;;21.76;46.05
41040;BME280;48586;50.122;18.972;2022-07-15T09:58:19;98785.41;;;22.12;44.96
41040;BME280;48586;50.122;18.972;2022-07-15T10:01:25;98797.81;;;22.13;44.66
41040;BME280;48586;50.122;18.972;2022-07-15T10:04:30;98789.63;;;22.24;43.50
41040;BME280;48586;50.122;18.972;2022-07-15T10:07:33;98797.69;;;21.84;43.84
41040;BME280;48586;50.122;18.972;2022-07-15T10:10:35;98803.97;;;21.59;44.59
41040;BME280;48586;50.122;18.972;2022-07-15T10:14:07;98803.91;;;21.80;42.19
41040;BME280;48586;50.122;18.972;2022-07-15T10:17:30;98794.13;;;21.99;39.93
41040;BME280;48586;50.122;18.972;2022-07-15T10:21:07;98792.69;;;22.12;41.07
41040;BME280;48586;50.122;18.972;2022-07-15T10:24:41;98796.66;;;22.19;40.50
41040;BME280;48586;50.122;18.972;2022-07-15T10:27:57;98786.78;;;22.44;41.48
41040;BME280;48586;50.122;18.972;2022-07-15T10:31:18;98790.38;;;22.98;38.45
41040;BME280;48586;50.122;18.972;2022-07-15T10:34:21;98789.13;;;22.90;41.45
41040;BME280;48586;50.122;18.972;2022-07-15T10:37:26;98798.09;;;22.85;40.26
41040;BME280;48586;50.122;18.972;2022-07-15T10:44:10;98787.19;;;23.19;40.61
41040;BME280;48586;50.122;18.972;2022-07-15T10:47:19;98788.19;;;23.53;39.05
41040;BME280;48586;50.122;18.972;2022-07-15T10:50:37;98780.50;;;24.03;38.51
41040;BME280;48586;50.122;18.972;2022-07-15T10:53:45;98787.97;;;23.49;39.25
41040;BME280;48586;50.122;18.972;2022-07-15T10:56:48;98792.91;;;23.18;39.75
41040;BME280;48586;50.122;18.972;2022-07-15T10:59:54;98792.63;;;23.67;40.82
41040;BME280;48586;50.122;18.972;2022-07-15T11:03:05;98791.34;;;24.40;38.79
41040;BME280;48586;50.122;18.972;2022-07-15T11:06:09;98799.53;;;24.54;38.28
41040;BME280;48586;50.122;18.972;2022-07-15T11:09:43;98790.75;;;25.09;37.15
41040;BME280;48586;50.122;18.972;2022-07-15T11:13:02;98787.47;;;25.67;36.35
41040;BME280;48586;50.122;18.972;2022-07-15T11:16:05;98784.84;;;25.34;36.03
41040;BME280;48586;50.122;18.972;2022-07-15T11:19:11;98785.41;;;25.04;35.55
41040;BME280;48586;50.122;18.972;2022-07-15T11:22:15;98773.97;;;25.34;36.34
41040;BME280;48586;50.122;18.972;2022-07-15T11:25:21;98784.47;;;25.55;34.80
41040;BME280;48586;50.122;18.972;2022-07-15T11:28:23;98783.84;;;26.08;37.35
41040;BME280;48586;50.122;18.972;2022-07-15T11:31:26;98790.41;;;26.65;36.04
41040;BME280;48586;50.122;18.972;2022-07-15T11:34:37;98787.00;;;26.60;31.42
41040;BME280;48586;50.122;18.972;2022-07-15T11:37:40;98788.13;;;26.59;34.35
41040;BME280;48586;50.122;18.972;2022-07-15T11:40:46;98780.47;;;26.61;31.04
41040;BME280;48586;50.122;18.972;2022-07-15T11:44:08;98780.44;;;26.83;34.39
41040;BME280;48586;50.122;18.972;2022-07-15T11:47:28;98775.25;;;27.35;32.58
41040;BME280;48586;50.122;18.972;2022-07-15T11:50:31;98782.91;;;26.94;32.06
41040;BME280;48586;50.122;18.972;2022-07-15T11:53:39;98773.91;;;26.84;30.33
41040;BME280;48586;50.122;18.972;2022-07-15T11:56:43;98765.03;;;27.01;30.80
41040;BME280;48586;50.122;18.972;2022-07-15T11:59:53;98782.84;;;27.56;30.57
41040;BME280;48586;50.122;18.972;2022-07-15T12:03:05;98778.75;;;27.27;31.27
41040;BME280;48586;50.122;18.972;2022-07-15T12:06:14;98785.81;;;28.03;31.92
41040;BME280;48586;50.122;18.972;2022-07-15T12:09:17;98781.06;;;28.26;32.49
41040;BME280;48586;50.122;18.972;2022-07-15T12:12:24;98767.56;;;28.03;28.63
41040;BME280;48586;50.122;18.972;2022-07-15T12:15:26;98766.91;;;27.32;30.62
41040;BME280;48586;50.122;18.972;2022-07-15T12:18:28;98774.84;;;27.11;32.09
41040;BME280;48586;50.122;18.972;2022-07-15T12:21:31;98770.78;;;27.39;31.21
41040;BME280;48586;50.122;18.972;2022-07-15T12:24:40;98774.50;;;28.18;30.96
41040;BME280;48586;50.122;18.972;2022-07-15T12:27:46;98763.22;;;29.19;31.61
41040;BME280;48586;50.122;18.972;2022-07-15T12:30:49;98759.78;;;29.69;29.71
41040;BME280;48586;50.122;18.972;2022-07-15T12:33:51;98758.41;;;29.15;30.24
41040;BME280;48586;50.122;18.972;2022-07-15T12:36:55;98769.47;;;28.55;31.18
41040;BME280;48586;50.122;18.972;2022-07-15T12:39:59;98773.31;;;27.84;30.69
41040;BME280;48586;50.122;18.972;2022-07-15T12:43:03;98780.06;;;26.76;30.35
41040;BME280;48586;50.122;18.972;2022-07-15T12:46:06;98789.31;;;25.58;32.09
41040;BME280;48586;50.122;18.972;2022-07-15T12:49:08;98778.09;;;25.18;33.36
41040;BME280;48586;50.122;18.972;2022-07-15T12:52:25;98777.59;;;25.16;31.65
41040;BME280;48586;50.122;18.972;2022-07-15T12:55:29;98786.84;;;25.29;33.43
41040;BME280;48586;50.122;18.972;2022-07-15T12:58:34;98785.47;;;25.45;32.86
41040;BME280;48586;50.122;18.972;2022-07-15T13:01:43;98777.00;;;25.47;31.43
41040;BME280;48586;50.122;18.972;2022-07-15T13:04:46;98779.81;;;25.41;32.20
41040;BME280;48586;50.122;18.972;2022-07-15T13:07:48;98775.41;;;25.46;32.81
41040;BME280;48586;50.122;18.972;2022-07-15T13:10:52;98770.56;;;25.29;32.48
41040;BME280;48586;50.122;18.972;2022-07-15T13:13:57;98776.09;;;25.10;32.18
41040;BME280;48586;50.122;18.972;2022-07-15T13:16:59;98767.88;;;25.15;34.36
41040;BME280;48586;50.122;18.972;2022-07-15T13:20:02;98776.00;;;25.15;34.27
41040;BME280;48586;50.122;18.972;2022-07-15T13:23:06;98776.41;;;25.36;33.53
41040;BME280;48586;50.122;18.972;2022-07-15T13:26:08;98766.94;;;25.47;33.05
41040;BME280;48586;50.122;18.972;2022-07-15T13:29:13;98772.28;;;25.52;33.23
41040;BME280;48586;50.122;18.972;2022-07-15T13:32:15;98767.97;;;25.65;33.46
41040;BME280;48586;50.122;18.972;2022-07-15T13:35:18;98768.03;;;25.74;33.70
41040;BME280;48586;50.122;18.972;2022-07-15T13:38:20;98771.16;;;25.81;32.49
41040;BME280;48586;50.122;18.972;2022-07-15T13:41:22;98767.56;;;25.72;32.30
41040;BME280;48586;50.122;18.972;2022-07-15T13:44:26;98769.19;;;25.59;31.06
41040;BME280;48586;50.122;18.972;2022-07-15T13:47:29;98771.59;;;25.60;32.46
41040;BME280;48586;50.122;18.972;2022-07-15T13:50:32;98769.25;;;25.81;31.34
41040;BME280;48586;50.122;18.972;2022-07-15T13:53:52;98771.84;;;25.86;32.07
41040;BME280;48586;50.122;18.972;2022-07-15T13:56:56;98761.69;;;26.28;32.95
41040;BME280;48586;50.122;18.972;2022-07-15T13:59:59;98767.94;;;26.82;31.67
41040;BME280;48586;50.122;18.972;2022-07-15T14:03:08;98762.53;;;27.13;31.87
41040;BME280;48586;50.122;18.972;2022-07-15T14:06:11;98767.19;;;27.13;31.08
41040;BME280;48586;50.122;18.972;2022-07-15T14:09:13;98762.97;;;27.07;31.44
41040;BME280;48586;50.122;18.972;2022-07-15T14:12:15;98765.34;;;27.00;31.36
41040;BME280;48586;50.122;18.972;2022-07-15T14:15:20;98768.28;;;27.12;30.47
41040;BME280;48586;50.122;18.972;2022-07-15T14:18:23;98765.91;;;27.19;30.64
41040;BME280;48586;50.122;18.972;2022-07-15T14:21:39;98756.66;;;27.29;30.01
41040;BME280;48586;50.122;18.972;2022-07-15T14:24:42;98771.97;;;27.56;29.72
41040;BME280;48586;50.122;18.972;2022-07-15T14:27:45;98767.88;;;27.93;29.22
41040;BME280;48586;50.122;18.972;2022-07-15T14:30:48;98759.53;;;27.89;27.78
41040;BME280;48586;50.122;18.972;2022-07-15T14:33:51;98759.28;;;28.17;29.77
41040;BME280;48586;50.122;18.972;2022-07-15T14:36:54;98769.00;;;28.53;29.12
41040;BME280;48586;50.122;18.972;2022-07-15T14:39:57;98763.59;;;28.35;28.38
41040;BME280;48586;50.122;18.972;2022-07-15T14:43:00;98777.63;;;27.77;28.18
41040;BME280;48586;50.122;18.972;2022-07-15T14:46:05;98768.50;;;27.90;28.17
41040;BME280;48586;50.122;18.972;2022-07-15T14:49:07;98761.81;;;28.22;29.13
41040;BME280;48586;50.122;18.972;2022-07-15T14:52:10;98773.31;;;28.80;28.03
41040;BME280;48586;50.122;18.972;2022-07-15T14:55:13;98756.72;;;28.94;26.84
41040;BME280;48586;50.122;18.972;2022-07-15T14:58:16;98762.25;;;28.59;27.92
41040;BME280;48586;50.122;18.972;2022-07-15T15:01:21;98763.91;;;28.08;26.45
41040;BME280;48586;50.122;18.972;2022-07-15T15:04:24;98767.06;;;27.92;28.97
41040;BME280;48586;50.122;18.972;2022-07-15T15:07:26;98769.50;;;28.29;29.21
41040;BME280;48586;50.122;18.972;2022-07-15T15:10:28;98755.88;;;29.10;28.66
41040;BME280;48586;50.122;18.972;2022-07-15T15:13:31;98781.06;;;28.52;27.13
41040;BME280;48586;50.122;18.972;2022-07-15T15:16:35;98773.31;;;27.27;28.13
41040;BME280;48586;50.122;18.972;2022-07-15T15:19:38;98778.97;;;26.55;29.23
41040;BME280;48586;50.122;18.972;2022-07-15T15:22:41;98784.59;;;26.58;30.30
41040;BME280;48586;50.122;18.972;2022-07-15T15:25:44;98787.00;;;26.60;29.86
41040;BME280;48586;50.122;18.972;2022-07-15T15:29:04;98783.13;;;26.52;29.54
41040;BME280;48586;50.122;18.972;2022-07-15T15:32:08;98781.88;;;27.12;30.00
41040;BME280;48586;50.122;18.972;2022-07-15T15:35:13;98770.13;;;27.91;28.86
41040;BME280;48586;50.122;18.972;2022-07-15T15:38:15;98774.16;;;28.37;28.04
41040;BME280;48586;50.122;18.972;2022-07-15T15:41:18;98768.75;;;29.01;27.96
41040;BME280;48586;50.122;18.972;2022-07-15T15:44:21;98775.44;;;29.59;27.62
41040;BME280;48586;50.122;18.972;2022-07-15T15:47:25;98772.22;;;30.29;27.22
41040;BME280;48586;50.122;18.972;2022-07-15T15:50:27;98773.75;;;30.84;27.08
41040;BME280;48586;50.122;18.972;2022-07-15T15:53:30;98777.53;;;30.25;26.52
41040;BME280;48586;50.122;18.972;2022-07-15T15:56:34;98774.69;;;29.42;26.52
41040;BME280;48586;50.122;18.972;2022-07-15T15:59:36;98783.66;;;29.51;26.96
41040;BME280;48586;50.122;18.972;2022-07-15T16:02:41;98779.44;;;29.15;26.54
41040;BME280;48586;50.122;18.972;2022-07-15T16:05:44;98776.84;;;29.27;27.52
41040;BME280;48586;50.122;18.972;2022-07-15T16:08:47;98783.06;;;29.36;26.60
41040;BME280;48586;50.122;18.972;2022-07-15T16:11:50;98780.78;;;29.47;26.53